createdAt,value
2022-09-29T00:01:19.620Z,11.76
2022-09-29T00:03:47.941Z,11.76
2022-09-29T00:06:18.854Z,11.70
2022-09-29T00:08:49.674Z,11.70
2022-09-29T00:11:21.237Z,11.70
2022-09-29T00:13:49.272Z,11.70
2022-09-29T00:16:17.205Z,11.62
2022-09-29T00:18:45.303Z,11.60
2022-09-29T00:21:19.939Z,11.60
2022-09-29T00:23:51.989Z,11.60
2022-09-29T00:26:23.966Z,11.60
2022-09-29T00:29:16.222Z,11.60
2022-09-29T00:31:45.726Z,11.60
2022-09-29T00:34:14.112Z,11.58
2022-09-29T00:36:41.905Z,11.50
2022-09-29T00:39:12.644Z,11.50
2022-09-29T00:41:42.934Z,11.50
2022-09-29T00:44:13.502Z,11.50
2022-09-29T00:47:03.131Z,11.50
2022-09-29T00:49:47.186Z,11.50
2022-09-29T00:52:24.766Z,11.50
2022-09-29T00:55:00.316Z,11.50
2022-09-29T00:57:39.419Z,11.50
2022-09-29T01:00:14.953Z,11.50
2022-09-29T01:02:53.565Z,11.50
2022-09-29T01:05:31.168Z,11.50
2022-09-29T01:08:11.629Z,11.50
2022-09-29T01:10:43.378Z,11.50
2022-09-29T01:13:12.257Z,11.50
2022-09-29T01:15:41.446Z,11.50
2022-09-29T01:18:09.290Z,11.50
2022-09-29T01:21:10.438Z,11.50
2022-09-29T01:23:53.359Z,11.50
2022-09-29T01:27:18.994Z,11.50
2022-09-29T01:30:08.621Z,11.58
2022-09-29T01:33:12.972Z,11.60
2022-09-29T01:35:56.131Z,11.52
2022-09-29T01:38:46.305Z,11.50
2022-09-29T01:41:28.685Z,11.44
2022-09-29T01:44:24.443Z,11.40
2022-09-29T01:47:24.839Z,11.40
2022-09-29T01:50:03.539Z,11.30
2022-09-29T01:52:40.785Z,11.30
2022-09-29T01:55:17.147Z,11.30
2022-09-29T01:57:54.725Z,11.30
2022-09-29T02:00:24.230Z,11.30
2022-09-29T02:03:35.235Z,11.30
2022-09-29T02:06:19.645Z,11.30
2022-09-29T02:08:54.770Z,11.24
2022-09-29T02:11:24.764Z,11.20
2022-09-29T02:14:10.638Z,11.20
2022-09-29T02:17:20.124Z,11.20
2022-09-29T02:19:52.433Z,11.20
2022-09-29T02:22:20.772Z,11.20
2022-09-29T02:25:02.241Z,11.20
2022-09-29T02:27:33.581Z,11.20
2022-09-29T02:30:02.807Z,11.20
2022-09-29T02:32:35.162Z,11.20
2022-09-29T02:35:09.026Z,11.20
2022-09-29T02:38:12.519Z,11.24
2022-09-29T02:41:13.809Z,11.20
2022-09-29T02:44:14.755Z,11.24
2022-09-29T02:47:44.681Z,11.26
2022-09-29T02:50:45.659Z,11.28
2022-09-29T02:53:40.208Z,11.30
2022-09-29T02:56:46.837Z,11.30
2022-09-29T02:59:25.389Z,11.30
2022-09-29T03:01:56.761Z,11.30
2022-09-29T03:04:28.501Z,11.28
2022-09-29T03:06:56.545Z,11.22
2022-09-29T03:09:24.755Z,11.22
2022-09-29T03:11:54.297Z,11.20
2022-09-29T03:14:24.460Z,11.20
2022-09-29T03:16:52.783Z,11.20
2022-09-29T03:19:20.630Z,11.20
2022-09-29T03:21:50.969Z,11.20
2022-09-29T03:24:19.067Z,11.16
2022-09-29T03:26:47.161Z,11.10
2022-09-29T03:29:15.545Z,11.10
2022-09-29T03:31:43.356Z,11.16
2022-09-29T03:34:11.128Z,11.10
2022-09-29T03:36:39.188Z,11.10
2022-09-29T03:39:07.810Z,11.20
2022-09-29T03:41:36.796Z,11.12
2022-09-29T03:44:04.916Z,11.12
2022-09-29T03:46:32.806Z,11.16
2022-09-29T03:49:00.652Z,11.20
2022-09-29T03:51:31.035Z,11.20
2022-09-29T03:53:59.171Z,11.20
2022-09-29T03:56:26.949Z,11.20
2022-09-29T03:58:55.034Z,11.10
2022-09-29T04:01:23.553Z,11.10
2022-09-29T04:03:54.612Z,11.10
2022-09-29T04:06:22.835Z,11.10
2022-09-29T04:08:52.315Z,11.10
2022-09-29T04:11:20.688Z,11.10
2022-09-29T04:13:48.566Z,11.10
2022-09-29T04:16:16.792Z,11.10
2022-09-29T04:18:44.579Z,11.10
2022-09-29T04:21:15.770Z,11.10
2022-09-29T04:23:45.935Z,11.10
2022-09-29T04:26:14.781Z,11.10
2022-09-29T04:28:45.517Z,11.00
2022-09-29T04:31:14.033Z,10.90
2022-09-29T04:33:41.950Z,10.82
2022-09-29T04:36:10.031Z,10.80
2022-09-29T04:38:41.663Z,10.80
2022-09-29T04:41:09.664Z,10.76
2022-09-29T04:43:39.670Z,10.70
2022-09-29T04:46:09.033Z,10.66
2022-09-29T04:48:38.177Z,10.60
2022-09-29T04:51:08.060Z,10.50
2022-09-29T04:53:35.837Z,10.50
2022-09-29T04:56:09.152Z,10.50
2022-09-29T04:58:36.904Z,10.50
2022-09-29T05:01:15.203Z,10.40
2022-09-29T05:03:46.234Z,10.40
2022-09-29T05:06:14.219Z,10.40
2022-09-29T05:08:42.738Z,10.40
2022-09-29T05:11:11.222Z,10.30
2022-09-29T05:13:39.157Z,10.30
2022-09-29T05:16:07.930Z,10.20
2022-09-29T05:18:36.204Z,10.10
2022-09-29T05:23:57.006Z,10.00
2022-09-29T05:26:25.221Z,9.90
2022-09-29T05:28:53.126Z,9.90
2022-09-29T05:31:22.379Z,9.86
2022-09-29T05:33:50.437Z,9.80
2022-09-29T05:36:18.345Z,9.70
2022-09-29T05:38:46.182Z,9.68
2022-09-29T05:41:16.253Z,9.60
2022-09-29T05:43:44.307Z,9.50
2022-09-29T05:46:12.428Z,9.50
2022-09-29T05:48:40.484Z,9.40
2022-09-29T05:51:12.912Z,9.30
2022-09-29T05:53:42.785Z,9.30
2022-09-29T05:56:15.621Z,9.30
2022-09-29T05:58:43.799Z,9.20
2022-09-29T06:01:16.429Z,9.20
2022-09-29T06:03:46.150Z,9.20
2022-09-29T06:06:21.988Z,9.18
2022-09-29T06:08:51.113Z,9.18
2022-09-29T06:11:29.348Z,9.10
2022-09-29T06:13:58.529Z,9.10
2022-09-29T06:16:30.358Z,9.08
2022-09-29T06:19:03.161Z,9.00
2022-09-29T06:21:34.828Z,9.00
2022-09-29T06:24:02.825Z,9.00
2022-09-29T06:26:31.158Z,9.00
2022-09-29T06:29:00.502Z,9.10
2022-09-29T06:31:30.859Z,9.10
2022-09-29T06:34:01.175Z,9.06
2022-09-29T06:36:55.325Z,9.10
2022-09-29T06:39:23.509Z,9.10
2022-09-29T06:41:55.433Z,9.10
2022-09-29T06:44:31.631Z,9.20
2022-09-29T06:47:00.313Z,9.20
2022-09-29T06:49:28.078Z,9.20
2022-09-29T06:51:57.270Z,9.20
2022-09-29T06:54:25.984Z,9.30
2022-09-29T06:56:55.739Z,9.20
2022-09-29T06:59:23.881Z,9.20
2022-09-29T07:01:53.614Z,9.20
2022-09-29T07:04:22.744Z,9.20
2022-09-29T07:06:51.321Z,9.20
2022-09-29T07:09:20.390Z,9.20
2022-09-29T07:11:53.706Z,9.24
2022-09-29T07:14:25.496Z,9.30
2022-09-29T07:16:53.901Z,9.30
2022-09-29T07:19:23.077Z,9.20
2022-09-29T07:21:51.789Z,9.22
2022-09-29T07:24:20.043Z,9.30
2022-09-29T07:26:47.843Z,9.30
2022-09-29T07:29:16.637Z,9.40
2022-09-29T07:31:51.661Z,9.40
2022-09-29T07:34:22.173Z,9.50
2022-09-29T07:36:51.175Z,9.56
2022-09-29T07:39:22.711Z,9.60
2022-09-29T07:41:52.135Z,9.78
2022-09-29T07:44:21.222Z,9.80
2022-09-29T07:46:50.333Z,9.90
2022-09-29T07:49:20.342Z,9.90
2022-09-29T07:51:49.103Z,9.90
2022-09-29T07:54:17.065Z,10.00
2022-09-29T07:56:44.871Z,10.06
2022-09-29T07:59:13.419Z,10.10
2022-09-29T08:01:41.144Z,10.20
2022-09-29T08:04:09.144Z,10.24
2022-09-29T08:06:37.325Z,10.30
2022-09-29T08:09:06.227Z,10.30
2022-09-29T08:11:41.106Z,10.40
2022-09-29T08:14:14.486Z,10.40
2022-09-29T08:16:42.337Z,10.40
2022-09-29T08:19:10.935Z,10.42
2022-09-29T08:21:38.892Z,10.50
2022-09-29T08:24:07.688Z,10.50
2022-09-29T08:26:44.290Z,10.60
2022-09-29T08:29:17.622Z,10.60
2022-09-29T08:31:46.447Z,10.68
2022-09-29T08:34:16.531Z,10.70
2022-09-29T08:36:45.144Z,10.70
2022-09-29T08:39:13.517Z,10.80
2022-09-29T08:42:11.834Z,10.80
2022-09-29T08:44:52.115Z,10.90
2022-09-29T08:47:42.020Z,10.90
2022-09-29T08:50:33.685Z,11.00
2022-09-29T08:53:25.961Z,11.00
2022-09-29T08:56:02.787Z,11.10
2022-09-29T08:58:34.245Z,11.16
2022-09-29T09:01:35.719Z,11.20
2022-09-29T09:04:40.337Z,11.28
2022-09-29T09:07:16.401Z,11.30
2022-09-29T09:10:12.462Z,11.40
2022-09-29T09:12:48.301Z,11.40
2022-09-29T09:15:54.857Z,11.50
2022-09-29T09:19:15.442Z,11.50
2022-09-29T09:21:50.347Z,11.50
2022-09-29T09:24:42.324Z,11.50
2022-09-29T09:27:24.366Z,11.50
2022-09-29T09:30:13.639Z,11.50
2022-09-29T09:33:01.634Z,11.46
2022-09-29T09:35:59.322Z,11.44
2022-09-29T09:38:56.294Z,11.50
2022-09-29T09:41:27.228Z,11.50
2022-09-29T09:44:07.915Z,11.60
2022-09-29T09:46:50.458Z,11.60
2022-09-29T09:49:31.651Z,11.70
2022-09-29T09:52:41.580Z,11.80
2022-09-29T09:55:20.668Z,11.80
2022-09-29T09:58:43.542Z,11.80
2022-09-29T10:01:12.926Z,11.82
2022-09-29T10:03:40.894Z,11.90
2022-09-29T10:06:09.568Z,11.90
2022-09-29T10:08:42.408Z,11.98
2022-09-29T10:11:19.358Z,12.00
2022-09-29T10:13:50.653Z,12.10
2022-09-29T10:16:32.334Z,12.20
2022-09-29T10:19:00.440Z,12.30
2022-09-29T10:21:44.683Z,12.30
2022-09-29T10:24:28.475Z,12.40
2022-09-29T10:27:00.631Z,12.40
2022-09-29T10:29:39.650Z,12.40
2022-09-29T10:32:37.762Z,12.40
2022-09-29T10:35:25.120Z,12.40
2022-09-29T10:38:07.018Z,12.46
2022-09-29T10:40:35.735Z,12.50
2022-09-29T10:43:26.993Z,12.50
2022-09-29T10:45:58.850Z,12.60
2022-09-29T10:48:28.251Z,12.60
2022-09-29T10:51:05.403Z,12.60
2022-09-29T10:53:41.339Z,12.70
2022-09-29T10:56:33.684Z,12.70
2022-09-29T10:59:06.220Z,12.80
2022-09-29T11:01:50.543Z,12.80
2022-09-29T11:04:46.766Z,12.80
2022-09-29T11:07:15.114Z,12.90
2022-09-29T11:09:45.535Z,12.90
2022-09-29T11:12:35.225Z,12.90
2022-09-29T11:15:23.451Z,12.90
2022-09-29T11:17:53.589Z,12.90
2022-09-29T11:20:29.657Z,12.90
2022-09-29T11:23:35.325Z,12.90
2022-09-29T11:26:41.958Z,12.96
2022-09-29T11:29:55.421Z,12.96
2022-09-29T11:32:47.043Z,13.00
2022-09-29T11:35:34.718Z,13.04
2022-09-29T11:38:53.292Z,13.10
2022-09-29T11:41:50.899Z,13.20
2022-09-29T11:44:48.154Z,13.30
2022-09-29T11:48:12.957Z,13.42
2022-09-29T11:50:43.729Z,13.60
2022-09-29T11:53:34.598Z,13.58
2022-09-29T11:56:38.847Z,13.60
2022-09-29T11:59:45.929Z,13.70
2022-09-29T12:02:23.001Z,14.00
2022-09-29T12:04:50.852Z,14.10
2022-09-29T12:08:05.225Z,14.00
2022-09-29T12:11:23.723Z,14.00
2022-09-29T12:14:26.649Z,14.00
2022-09-29T12:17:06.790Z,13.90
2022-09-29T12:19:40.056Z,13.84
2022-09-29T12:22:19.497Z,13.80
2022-09-29T12:24:54.598Z,13.70
2022-09-29T12:27:30.102Z,13.70
2022-09-29T12:30:16.219Z,13.70
2022-09-29T12:32:58.976Z,13.60
2022-09-29T12:35:43.101Z,13.60
2022-09-29T12:38:40.587Z,13.60
2022-09-29T12:41:29.862Z,13.50
2022-09-29T12:44:29.967Z,13.50
2022-09-29T12:47:19.384Z,13.48
2022-09-29T12:50:20.570Z,13.44
2022-09-29T12:53:09.273Z,13.50
2022-09-29T12:56:10.272Z,13.50
2022-09-29T12:59:41.132Z,13.60
2022-09-29T13:02:33.632Z,13.68
2022-09-29T13:05:12.394Z,13.70
2022-09-29T13:08:21.416Z,13.70
2022-09-29T13:11:17.628Z,13.70
2022-09-29T13:14:39.802Z,13.70
2022-09-29T13:17:48.421Z,13.70
2022-09-29T13:20:48.047Z,13.70
2022-09-29T13:23:57.266Z,13.70
2022-09-29T13:26:52.995Z,13.70
2022-09-29T13:29:25.382Z,13.70
2022-09-29T13:31:58.170Z,13.70
2022-09-29T13:34:36.950Z,13.80
2022-09-29T13:37:15.457Z,13.80
2022-09-29T13:39:59.433Z,13.80
2022-09-29T13:42:55.852Z,13.76
2022-09-29T13:45:29.197Z,13.74
2022-09-29T13:48:03.021Z,13.70
2022-09-29T13:50:43.319Z,13.70
2022-09-29T13:53:33.593Z,13.70
2022-09-29T13:56:05.068Z,13.70
2022-09-29T13:58:59.435Z,13.70
2022-09-29T14:01:36.151Z,13.70
2022-09-29T14:04:49.527Z,13.70
2022-09-29T14:07:50.228Z,13.70
2022-09-29T14:10:36.618Z,13.70
2022-09-29T14:13:34.678Z,13.70
2022-09-29T14:16:18.056Z,13.80
2022-09-29T14:18:57.259Z,13.80
2022-09-29T14:21:54.823Z,13.80
2022-09-29T14:24:43.004Z,13.80
2022-09-29T14:27:28.446Z,13.80
2022-09-29T14:30:14.005Z,13.90
2022-09-29T14:33:00.146Z,13.90
2022-09-29T14:35:33.161Z,13.90
2022-09-29T14:38:19.926Z,13.90
2022-09-29T14:41:21.991Z,14.00
2022-09-29T14:44:08.585Z,14.00
2022-09-29T14:47:18.176Z,14.00
2022-09-29T14:50:58.312Z,14.00
2022-09-29T14:53:59.760Z,13.92
2022-09-29T14:57:13.394Z,13.90
2022-09-29T15:00:17.008Z,13.90
2022-09-29T15:02:59.661Z,13.80
2022-09-29T15:05:38.075Z,13.80
2022-09-29T15:08:28.849Z,13.70
2022-09-29T15:10:56.988Z,13.70
2022-09-29T15:13:30.353Z,13.70
2022-09-29T15:16:15.058Z,13.68
2022-09-29T15:19:21.656Z,13.60
2022-09-29T15:22:31.019Z,13.52
2022-09-29T15:25:26.660Z,13.56
2022-09-29T15:27:59.265Z,13.60
2022-09-29T15:30:29.727Z,13.60
2022-09-29T15:33:47.976Z,13.50
2022-09-29T15:36:32.581Z,13.50
2022-09-29T15:39:08.124Z,13.50
2022-09-29T15:41:36.596Z,13.50
2022-09-29T15:44:20.101Z,13.50
2022-09-29T15:46:56.633Z,13.48
2022-09-29T15:49:29.304Z,13.40
2022-09-29T15:51:58.960Z,13.40
2022-09-29T15:57:23.556Z,13.30
2022-09-29T15:59:54.662Z,13.30
2022-09-29T16:02:40.884Z,13.30
2022-09-29T16:05:25.941Z,13.30
2022-09-29T16:08:07.593Z,13.20
2022-09-29T16:10:48.859Z,13.20
2022-09-29T16:13:41.426Z,13.18
2022-09-29T16:16:13.078Z,13.16
2022-09-29T16:18:49.869Z,13.10
2022-09-29T16:21:22.262Z,13.10
2022-09-29T16:24:19.184Z,13.10
2022-09-29T16:26:54.676Z,13.10
2022-09-29T16:29:22.543Z,13.10
2022-09-29T16:31:52.802Z,13.06
2022-09-29T16:34:23.076Z,13.00
2022-09-29T16:36:58.469Z,13.00
2022-09-29T16:39:40.057Z,12.90
2022-09-29T16:42:25.630Z,12.80
2022-09-29T16:44:56.190Z,12.70
2022-09-29T16:47:31.346Z,12.70
2022-09-29T16:50:03.566Z,12.70
2022-09-29T16:52:46.988Z,12.70
2022-09-29T16:55:28.004Z,12.68
2022-09-29T16:58:02.573Z,12.56
2022-09-29T17:00:32.630Z,12.50
2022-09-29T17:03:05.933Z,12.40
2022-09-29T17:05:47.818Z,12.40
2022-09-29T17:08:29.184Z,12.30
2022-09-29T17:10:59.594Z,12.20
2022-09-29T17:13:35.362Z,12.20
2022-09-29T17:16:08.406Z,12.10
2022-09-29T17:18:39.937Z,12.00
2022-09-29T17:21:13.000Z,11.90
2022-09-29T17:23:41.073Z,11.90
2022-09-29T17:27:03.155Z,11.80
2022-09-29T17:29:32.160Z,11.70
2022-09-29T17:32:02.609Z,11.70
2022-09-29T17:34:30.731Z,11.68
2022-09-29T17:37:02.357Z,11.58
2022-09-29T17:39:31.324Z,11.54
2022-09-29T17:41:59.784Z,11.50
2022-09-29T17:44:27.969Z,11.40
2022-09-29T17:47:05.527Z,11.26
2022-09-29T17:49:50.011Z,11.10
2022-09-29T17:52:20.209Z,11.00
2022-09-29T17:54:48.073Z,11.00
2022-09-29T17:57:28.003Z,11.00
2022-09-29T17:59:58.244Z,11.00
2022-09-29T18:02:26.608Z,10.92
2022-09-29T18:04:55.941Z,10.90
2022-09-29T18:07:26.176Z,10.80
2022-09-29T18:09:54.746Z,10.74
2022-09-29T18:12:22.924Z,10.70
2022-09-29T18:14:50.982Z,10.70
2022-09-29T18:17:18.829Z,10.70
2022-09-29T18:19:47.506Z,10.70
2022-09-29T18:22:17.022Z,10.80
2022-09-29T18:24:44.799Z,10.80
2022-09-29T18:27:14.957Z,10.70
2022-09-29T18:29:43.208Z,10.50
2022-09-29T18:32:18.923Z,10.40
2022-09-29T18:34:46.802Z,10.38
2022-09-29T18:37:15.794Z,10.30
2022-09-29T18:39:43.562Z,10.20
2022-09-29T18:42:12.595Z,10.10
2022-09-29T18:44:40.265Z,10.04
2022-09-29T18:47:13.134Z,10.00
2022-09-29T18:49:40.983Z,10.00
2022-09-29T18:52:10.235Z,9.90
2022-09-29T18:54:38.396Z,9.86
2022-09-29T18:57:07.253Z,9.80
2022-09-29T18:59:35.517Z,9.70
2022-09-29T19:02:03.926Z,9.70
2022-09-29T19:04:31.791Z,9.62
2022-09-29T19:07:02.525Z,9.60
2022-09-29T19:09:30.405Z,9.60
2022-09-29T19:11:58.299Z,9.60
2022-09-29T19:14:26.625Z,9.58
2022-09-29T19:16:55.270Z,9.44
2022-09-29T19:19:25.023Z,9.40
2022-09-29T19:21:52.792Z,9.30
2022-09-29T19:24:24.673Z,9.28
2022-09-29T19:26:53.510Z,9.20
2022-09-29T19:29:21.757Z,9.12
2022-09-29T19:31:51.386Z,9.00
2022-09-29T19:34:19.315Z,8.90
2022-09-29T19:36:47.080Z,8.80
2022-09-29T19:39:16.138Z,8.80
2022-09-29T19:41:43.908Z,8.80
2022-09-29T19:44:12.011Z,8.80
2022-09-29T19:46:39.941Z,8.80
2022-09-29T19:49:07.725Z,8.70
2022-09-29T19:51:55.292Z,8.62
2022-09-29T19:54:28.121Z,8.60
2022-09-29T19:57:00.736Z,8.50
2022-09-29T19:59:36.512Z,8.58
2022-09-29T20:02:15.096Z,8.50
2022-09-29T20:04:44.539Z,8.40
2022-09-29T20:07:12.793Z,8.36
2022-09-29T20:09:41.299Z,8.24
2022-09-29T20:12:09.734Z,8.16
2022-09-29T20:14:41.762Z,8.14
2022-09-29T20:17:10.062Z,8.10
2022-09-29T20:19:37.866Z,8.04
2022-09-29T20:22:08.397Z,8.00
2022-09-29T20:24:38.603Z,8.00
2022-09-29T20:27:08.468Z,7.98
2022-09-29T20:29:37.613Z,7.90
2022-09-29T20:32:05.945Z,7.90
2022-09-29T20:34:33.755Z,7.80
2022-09-29T20:37:02.063Z,7.80
2022-09-29T20:39:32.581Z,7.70
2022-09-29T20:42:00.348Z,7.70
2022-09-29T20:44:28.321Z,7.78
2022-09-29T20:46:57.711Z,7.76
2022-09-29T20:49:28.228Z,7.70
2022-09-29T20:51:57.220Z,7.70
2022-09-29T20:54:25.107Z,7.60
2022-09-29T20:56:53.908Z,7.60
2022-09-29T20:59:24.840Z,7.70
2022-09-29T21:01:54.186Z,7.72
2022-09-29T21:04:23.389Z,7.80
2022-09-29T21:06:53.203Z,7.60
2022-09-29T21:09:24.427Z,7.56
2022-09-29T21:11:54.929Z,7.60
2022-09-29T21:14:28.044Z,7.50
2022-09-29T21:16:57.765Z,7.50
2022-09-29T21:19:26.831Z,7.40
2022-09-29T21:21:56.107Z,7.30
2022-09-29T21:24:24.522Z,7.20
2022-09-29T21:26:53.600Z,7.20
2022-09-29T21:29:22.299Z,7.10
2022-09-29T21:31:51.429Z,7.10
2022-09-29T21:34:20.226Z,7.20
2022-09-29T21:36:48.358Z,7.20
2022-09-29T21:39:17.298Z,7.12
2022-09-29T21:41:46.958Z,7.20
2022-09-29T21:44:24.256Z,7.10
2022-09-29T21:46:53.229Z,7.20
2022-09-29T21:49:21.264Z,7.12
2022-09-29T21:51:52.447Z,7.10
2022-09-29T21:54:26.269Z,7.02
2022-09-29T21:56:54.346Z,7.00
2022-09-29T21:59:23.049Z,6.92
2022-09-29T22:01:52.312Z,6.90
2022-09-29T22:04:23.642Z,7.00
2022-09-29T22:06:52.469Z,6.94
2022-09-29T22:09:21.746Z,6.90
2022-09-29T22:11:50.445Z,6.88
2022-09-29T22:14:20.605Z,6.80
2022-09-29T22:16:48.541Z,6.72
2022-09-29T22:19:24.639Z,6.72
2022-09-29T22:21:54.440Z,6.70
2022-09-29T22:24:24.598Z,6.64
2022-09-29T22:26:52.691Z,6.70
2022-09-29T22:29:21.183Z,6.70
2022-09-29T22:31:51.321Z,6.60
2022-09-29T22:34:19.894Z,6.60
2022-09-29T22:36:47.987Z,6.60
2022-09-29T22:39:15.896Z,6.60
2022-09-29T22:41:44.350Z,6.60
2022-09-29T22:44:12.697Z,6.58
2022-09-29T22:46:40.585Z,6.50
2022-09-29T22:49:08.880Z,6.50
2022-09-29T22:51:36.926Z,6.50
2022-09-29T22:54:04.789Z,6.40
2022-09-29T22:56:32.703Z,6.40
2022-09-29T22:59:04.452Z,6.48
2022-09-29T23:01:35.503Z,6.50
2022-09-29T23:04:05.530Z,6.60
2022-09-29T23:06:36.624Z,6.60
2022-09-29T23:09:04.411Z,6.60
2022-09-29T23:11:36.141Z,6.60
2022-09-29T23:14:04.116Z,6.54
2022-09-29T23:16:32.354Z,6.50
2022-09-29T23:19:00.371Z,6.50
2022-09-29T23:21:28.218Z,6.50
2022-09-29T23:24:01.476Z,6.50
2022-09-29T23:26:31.428Z,6.50
2022-09-29T23:29:00.880Z,6.50
2022-09-29T23:31:28.719Z,6.50
2022-09-29T23:34:00.402Z,6.50
2022-09-29T23:36:31.328Z,6.50
2022-09-29T23:39:14.076Z,6.50
2022-09-29T23:41:50.364Z,6.50
2022-09-29T23:44:29.938Z,6.50
2022-09-29T23:46:59.116Z,6.44
2022-09-29T23:49:29.246Z,6.40
2022-09-29T23:52:01.552Z,6.50
2022-09-29T23:54:29.656Z,6.48
2022-09-29T23:56:58.522Z,6.50
2022-09-29T23:59:26.611Z,6.50
